createdAt,value
2019-04-05T00:00:33.516Z,31.73
2019-04-05T00:03:42.141Z,31.83
2019-04-05T00:06:49.179Z,33.97
2019-04-05T00:09:57.865Z,32.50
2019-04-05T00:13:06.895Z,33.60
2019-04-05T00:16:15.457Z,32.53
2019-04-05T00:19:24.129Z,33.03
2019-04-05T00:22:32.960Z,34.90
2019-04-05T00:25:41.498Z,35.23
2019-04-05T00:28:53.160Z,36.13
2019-04-05T00:32:12.162Z,35.53
2019-04-05T00:35:20.795Z,36.53
2019-04-05T00:38:29.504Z,35.67
2019-04-05T00:41:39.169Z,37.37
2019-04-05T00:44:47.790Z,37.23
2019-04-05T00:48:06.887Z,39.13
2019-04-05T00:51:15.598Z,40.30
2019-04-05T00:54:24.202Z,38.47
2019-04-05T00:57:32.894Z,40.67
2019-04-05T01:00:42.708Z,40.33
2019-04-05T01:03:51.368Z,42.97
2019-04-05T01:07:00.109Z,42.17
2019-04-05T01:10:19.134Z,41.00
2019-04-05T01:13:28.134Z,42.93
2019-04-05T01:16:47.089Z,43.83
2019-04-05T01:19:58.713Z,43.63
2019-04-05T01:23:08.823Z,43.63
2019-04-05T01:26:18.926Z,41.93
2019-04-05T01:29:38.837Z,42.87
2019-04-05T01:32:48.689Z,45.13
2019-04-05T01:36:07.461Z,43.30
2019-04-05T01:39:16.161Z,44.87
2019-04-05T01:42:24.896Z,42.87
2019-04-05T01:45:33.789Z,44.07
2019-04-05T01:48:42.453Z,46.10
2019-04-05T01:51:51.091Z,46.33
2019-04-05T01:54:59.807Z,46.50
2019-04-05T01:58:08.446Z,45.13
2019-04-05T02:01:17.303Z,46.90
2019-04-05T02:04:26.046Z,42.93
2019-04-05T02:07:34.770Z,44.87
2019-04-05T02:10:44.132Z,47.77
2019-04-05T02:13:52.952Z,46.50
2019-04-05T02:17:01.741Z,43.97
2019-04-05T02:20:21.209Z,42.10
2019-04-05T02:23:29.879Z,42.50
2019-04-05T02:26:38.650Z,44.23
2019-04-05T02:29:47.345Z,42.03
2019-04-05T02:32:55.958Z,42.17
2019-04-05T02:36:04.744Z,41.77
2019-04-05T02:39:13.488Z,43.63
2019-04-05T02:42:23.886Z,44.13
2019-04-05T02:45:35.907Z,41.80
2019-04-05T02:48:46.988Z,42.67
2019-04-05T02:51:56.844Z,43.60
2019-04-05T02:55:06.035Z,39.77
2019-04-05T02:58:15.361Z,40.30
2019-04-05T03:01:35.281Z,40.10
2019-04-05T03:04:43.986Z,41.43
2019-04-05T03:07:51.602Z,40.27
2019-04-05T03:11:12.551Z,40.50
2019-04-05T03:14:22.417Z,40.13
2019-04-05T03:17:31.030Z,39.10
2019-04-05T03:20:39.853Z,41.60
2019-04-05T03:23:49.251Z,40.03
2019-04-05T03:27:05.403Z,42.63
2019-04-05T03:30:14.161Z,42.43
2019-04-05T03:33:22.699Z,42.37
2019-04-05T03:36:31.664Z,42.67
2019-04-05T03:39:40.625Z,44.07
2019-04-05T03:42:49.290Z,42.90
2019-04-05T03:45:57.922Z,43.90
2019-04-05T03:49:07.340Z,41.77
2019-04-05T03:52:15.879Z,42.27
2019-04-05T03:55:35.346Z,41.90
2019-04-05T03:58:43.950Z,42.37
2019-04-05T04:01:52.922Z,42.90
2019-04-05T04:05:01.527Z,42.73
2019-04-05T04:08:10.610Z,42.00
2019-04-05T04:11:19.216Z,41.13
2019-04-05T04:14:28.074Z,39.80
2019-04-05T04:17:36.610Z,38.63
2019-04-05T04:21:00.425Z,39.50
2019-04-05T04:24:19.654Z,39.60
2019-04-05T04:27:29.203Z,38.70
2019-04-05T04:30:39.128Z,40.20
2019-04-05T04:33:48.637Z,38.13
2019-04-05T04:36:57.396Z,37.17
2019-04-05T04:40:06.976Z,38.07
2019-04-05T04:43:27.510Z,38.23
2019-04-05T04:46:36.168Z,38.83
2019-04-05T04:49:45.061Z,38.77
2019-04-05T04:52:54.010Z,40.20
2019-04-05T04:56:02.869Z,39.40
2019-04-05T04:59:11.594Z,41.77
2019-04-05T05:02:20.119Z,43.20
2019-04-05T05:05:29.025Z,41.43
2019-04-05T05:08:37.853Z,43.03
2019-04-05T05:11:46.689Z,43.63
2019-04-05T05:14:55.512Z,44.10
2019-04-05T05:18:04.441Z,43.87
2019-04-05T05:21:11.847Z,43.17
2019-04-05T05:24:20.632Z,43.53
2019-04-05T05:27:40.069Z,43.30
2019-04-05T05:30:59.216Z,41.33
2019-04-05T05:34:07.980Z,41.87
2019-04-05T05:37:16.944Z,44.17
2019-04-05T05:40:36.021Z,44.67
2019-04-05T05:43:44.670Z,43.40
2019-04-05T05:46:53.326Z,44.47
2019-04-05T05:50:03.015Z,44.47
2019-04-05T05:53:22.157Z,43.03
2019-04-05T05:56:41.114Z,42.70
2019-04-05T05:59:49.647Z,43.37
2019-04-05T06:02:58.211Z,44.07
2019-04-05T06:06:07.188Z,41.60
2019-04-05T06:09:15.899Z,42.10
2019-04-05T06:12:24.448Z,43.10
2019-04-05T06:15:37.640Z,42.57
2019-04-05T06:18:48.539Z,42.03
2019-04-05T06:21:56.854Z,42.50
2019-04-05T06:25:06.166Z,42.83
2019-04-05T06:28:14.713Z,43.50
2019-04-05T06:31:24.455Z,46.73
2019-04-05T06:34:33.026Z,45.47
2019-04-05T06:37:43.195Z,43.70
2019-04-05T06:40:51.755Z,45.47
2019-04-05T06:44:00.260Z,46.40
2019-04-05T06:47:08.885Z,43.67
2019-04-05T06:50:27.857Z,47.30
2019-04-05T06:53:36.388Z,46.30
2019-04-05T06:56:45.010Z,44.40
2019-04-05T06:59:53.576Z,45.27
2019-04-05T07:03:02.351Z,44.63
2019-04-05T07:06:10.879Z,44.80
2019-04-05T07:09:19.386Z,44.10
2019-04-05T07:12:38.288Z,43.13
2019-04-05T07:15:46.965Z,43.37
2019-04-05T07:18:55.569Z,43.60
2019-04-05T07:22:04.114Z,41.70
2019-04-05T07:25:13.186Z,43.90
2019-04-05T07:28:25.129Z,40.60
2019-04-05T07:31:34.071Z,42.43
2019-04-05T07:34:42.620Z,42.63
2019-04-05T07:37:53.392Z,42.40
2019-04-05T07:41:01.713Z,42.67
2019-04-05T07:44:10.223Z,39.97
2019-04-05T07:47:18.787Z,42.57
2019-04-05T07:50:37.619Z,42.03
2019-04-05T07:53:46.159Z,43.20
2019-04-05T07:56:54.811Z,43.80
2019-04-05T08:00:03.500Z,43.43
2019-04-05T08:03:13.449Z,42.80
2019-04-05T08:06:35.041Z,43.53
2019-04-05T08:09:44.160Z,42.20
2019-04-05T08:12:53.298Z,43.53
2019-04-05T08:16:12.337Z,42.37
2019-04-05T08:19:20.995Z,42.33
2019-04-05T08:22:32.169Z,39.60
2019-04-05T08:25:41.329Z,41.43
2019-04-05T08:28:50.036Z,40.87
2019-04-05T08:31:58.999Z,43.07
2019-04-05T08:35:07.675Z,42.13
2019-04-05T08:38:18.047Z,41.53
2019-04-05T08:41:26.664Z,40.37
2019-04-05T08:44:35.311Z,39.93
2019-04-05T08:47:54.163Z,40.00
2019-04-05T08:51:02.969Z,40.13
2019-04-05T08:54:11.634Z,42.53
2019-04-05T08:57:20.255Z,40.70
2019-04-05T09:00:28.955Z,41.33
2019-04-05T09:03:37.613Z,41.03
2019-04-05T09:06:46.188Z,40.70
2019-04-05T09:09:54.737Z,39.73
2019-04-05T09:13:03.349Z,41.40
2019-04-05T09:16:22.336Z,42.40
2019-04-05T09:19:31.009Z,42.13
2019-04-05T09:22:39.651Z,43.30
2019-04-05T09:25:48.392Z,41.90
2019-04-05T09:28:57.106Z,41.83
2019-04-05T09:32:05.816Z,43.03
2019-04-05T09:35:14.693Z,40.73
2019-04-05T09:38:23.333Z,43.27
2019-04-05T09:41:32.144Z,42.07
2019-04-05T09:44:42.126Z,40.87
2019-04-05T09:47:50.779Z,40.70
2019-04-05T09:51:09.728Z,40.83
2019-04-05T09:54:18.385Z,42.00
2019-04-05T09:57:27.006Z,41.50
2019-04-05T10:00:35.647Z,41.37
2019-04-05T10:03:44.275Z,40.23
2019-04-05T10:06:52.915Z,42.90
2019-04-05T10:10:01.471Z,41.97
2019-04-05T10:13:20.321Z,42.17
2019-04-05T10:16:28.969Z,39.50
2019-04-05T10:19:49.343Z,43.20
2019-04-05T10:22:47.978Z,42.07
2019-04-05T10:25:56.610Z,40.80
2019-04-05T10:29:16.566Z,40.43
2019-04-05T10:32:25.219Z,41.40
2019-04-05T10:35:33.852Z,42.43
2019-04-05T10:38:42.494Z,40.93
2019-04-05T10:42:02.864Z,42.13
2019-04-05T10:45:03.289Z,41.27
2019-04-05T10:48:11.911Z,43.93
2019-04-05T10:51:20.544Z,42.37
2019-04-05T10:54:29.164Z,42.37
2019-04-05T10:57:37.849Z,43.23
2019-04-05T11:00:56.756Z,42.57
2019-04-05T11:04:05.500Z,40.93
2019-04-05T11:07:14.427Z,42.17
2019-04-05T11:10:23.064Z,42.27
2019-04-05T11:13:31.694Z,42.87
2019-04-05T11:16:40.213Z,43.47
2019-04-05T11:19:48.748Z,42.83
2019-04-05T11:22:57.284Z,42.47
2019-04-05T11:26:35.601Z,42.80
2019-04-05T11:29:44.269Z,40.80
2019-04-05T11:32:53.112Z,43.77
2019-04-05T11:36:01.718Z,43.37
2019-04-05T11:39:11.020Z,42.00
2019-04-05T11:42:21.953Z,43.70
2019-04-05T11:45:31.316Z,43.30
2019-04-05T11:48:41.389Z,43.80
2019-04-05T11:51:50.506Z,44.40
2019-04-05T11:54:59.059Z,44.50
2019-04-05T11:58:07.676Z,44.73
2019-04-05T12:01:28.909Z,44.07
2019-04-05T12:04:52.684Z,43.07
2019-04-05T12:08:02.100Z,45.43
2019-04-05T12:11:10.777Z,43.40
2019-04-05T12:14:29.586Z,41.23
2019-04-05T12:17:29.744Z,44.83
2019-04-05T12:20:49.169Z,43.93
2019-04-05T12:23:48.715Z,43.80
2019-04-05T12:26:57.326Z,41.37
2019-04-05T12:30:19.761Z,39.83
2019-04-05T12:33:28.270Z,46.63
2019-04-05T12:36:36.807Z,45.10
2019-04-05T12:39:45.470Z,44.27
2019-04-05T12:42:54.082Z,42.47
2019-04-05T12:46:03.417Z,44.37
2019-04-05T12:49:13.373Z,42.87
2019-04-05T12:52:25.055Z,43.77
2019-04-05T12:55:32.774Z,42.67
2019-04-05T12:58:41.383Z,43.00
2019-04-05T13:01:50.028Z,43.43
2019-04-05T13:04:58.733Z,43.57
2019-04-05T13:08:07.347Z,44.40
2019-04-05T13:11:16.003Z,44.63
2019-04-05T13:14:34.989Z,48.27
2019-04-05T13:17:43.727Z,51.07
2019-04-05T13:20:52.374Z,55.77
2019-04-05T13:24:03.931Z,56.90
2019-04-05T13:27:11.698Z,56.80
2019-04-05T13:30:21.230Z,54.90
2019-04-05T13:33:29.868Z,56.07
2019-04-05T13:36:38.510Z,51.10
2019-04-05T13:40:00.037Z,51.87
2019-04-05T13:43:08.490Z,51.93
2019-04-05T13:46:22.208Z,51.93
2019-04-05T13:49:27.419Z,49.77
2019-04-05T13:52:46.546Z,49.40
2019-04-05T13:55:55.062Z,49.97
2019-04-05T13:59:03.700Z,51.60
2019-04-05T14:02:12.313Z,48.83
2019-04-05T14:05:22.268Z,51.67
2019-04-05T14:08:32.553Z,51.63
2019-04-05T14:11:41.269Z,52.27
2019-04-05T14:15:00.219Z,50.97
2019-04-05T14:18:08.641Z,51.23
2019-04-05T14:21:39.786Z,52.07
2019-04-05T14:24:38.692Z,51.83
2019-04-05T14:27:47.277Z,54.87
2019-04-05T14:30:56.003Z,55.00
2019-04-05T14:34:04.725Z,56.37
2019-04-05T14:37:13.347Z,52.43
2019-04-05T14:40:22.123Z,54.23
2019-04-05T14:43:30.686Z,54.03
2019-04-05T14:46:39.317Z,53.80
2019-04-05T14:49:49.291Z,52.33
2019-04-05T14:53:00.795Z,53.47
2019-04-05T14:56:08.160Z,55.33
2019-04-05T14:59:16.815Z,52.90
2019-04-05T15:02:25.412Z,55.70
2019-04-05T15:05:34.065Z,56.53
2019-04-05T15:08:42.798Z,53.47
2019-04-05T15:11:51.423Z,54.83
2019-04-05T15:15:00.018Z,53.93
2019-04-05T15:18:19.662Z,54.00
2019-04-05T15:21:28.627Z,56.60
2019-04-05T15:24:37.282Z,57.13
2019-04-05T15:27:45.824Z,55.17
2019-04-05T15:31:04.682Z,56.53
2019-04-05T15:34:13.276Z,56.23
2019-04-05T15:37:21.543Z,56.77
2019-04-05T15:40:30.884Z,51.60
2019-04-05T15:43:50.506Z,51.77
2019-04-05T15:46:59.271Z,50.60
2019-04-05T15:50:09.695Z,47.80
2019-04-05T15:53:18.382Z,46.00
2019-04-05T15:56:26.960Z,47.80
2019-04-05T15:59:35.699Z,47.43
2019-04-05T16:02:44.255Z,48.17
2019-04-05T16:05:52.911Z,47.50
2019-04-05T16:09:01.591Z,46.77
2019-04-05T16:12:10.270Z,45.73
2019-04-05T16:15:17.875Z,50.03
2019-04-05T16:18:26.440Z,47.53
2019-04-05T16:21:35.012Z,44.70
2019-04-05T16:24:53.860Z,45.10
2019-04-05T16:28:04.233Z,41.43
2019-04-05T16:31:12.809Z,43.67
2019-04-05T16:34:21.412Z,44.13
2019-04-05T16:37:30.091Z,41.67
2019-04-05T16:40:38.919Z,43.83
2019-04-05T16:43:47.556Z,43.10
2019-04-05T16:46:56.322Z,42.37
2019-04-05T16:50:06.962Z,42.87
2019-04-05T16:53:15.664Z,41.17
2019-04-05T16:56:24.403Z,39.37
2019-04-05T16:59:33.042Z,38.50
2019-04-05T17:02:41.966Z,37.40
2019-04-05T17:05:51.581Z,37.47
2019-04-05T17:09:00.266Z,35.83
2019-04-05T17:12:09.062Z,35.77
2019-04-05T17:15:17.646Z,36.17
2019-04-05T17:18:26.323Z,35.60
2019-04-05T17:21:35.960Z,33.57
2019-04-05T17:24:54.896Z,34.57
2019-04-05T17:28:02.020Z,35.63
2019-04-05T17:31:11.597Z,34.10
2019-04-05T17:34:20.275Z,33.37
2019-04-05T17:37:28.911Z,34.43
2019-04-05T17:40:47.844Z,34.43
2019-04-05T17:43:56.595Z,33.73
2019-04-05T17:47:05.160Z,33.53
2019-04-05T17:50:16.875Z,34.83
2019-04-05T17:53:27.063Z,33.73
2019-04-05T17:56:36.003Z,34.53
2019-04-05T17:59:46.099Z,34.67
2019-04-05T18:02:54.777Z,35.17
2019-04-05T18:06:13.624Z,35.43
2019-04-05T18:09:22.261Z,35.00
2019-04-05T18:12:30.912Z,34.83
2019-04-05T18:15:51.931Z,36.40
2019-04-05T18:18:49.851Z,36.37
2019-04-05T18:21:58.529Z,34.30
2019-04-05T18:25:07.430Z,35.47
2019-04-05T18:28:16.067Z,35.57
2019-04-05T18:31:24.619Z,35.97
2019-04-05T18:34:43.421Z,34.20
2019-04-05T18:37:52.287Z,34.47
2019-04-05T18:41:01.082Z,34.00
2019-04-05T18:44:09.704Z,34.60
2019-04-05T18:47:18.369Z,35.70
2019-04-05T18:50:26.940Z,35.23
2019-04-05T18:53:37.914Z,35.67
2019-04-05T18:56:46.005Z,34.73
2019-04-05T18:59:54.660Z,36.40
2019-04-05T19:03:03.406Z,36.13
2019-04-05T19:06:11.984Z,35.50
2019-04-05T19:09:21.102Z,34.63
2019-04-05T19:12:29.876Z,35.50
2019-04-05T19:15:38.549Z,35.47
2019-04-05T19:18:47.158Z,34.10
2019-04-05T19:21:55.879Z,35.10
2019-04-05T19:25:14.803Z,35.73
2019-04-05T19:28:24.947Z,33.40
2019-04-05T19:50:35.859Z,35.03
2019-04-05T19:53:44.541Z,33.20
2019-04-05T19:56:53.074Z,31.87
2019-04-05T20:00:02.528Z,32.40
2019-04-05T20:03:11.178Z,33.20
2019-04-05T20:06:19.803Z,34.30
2019-04-05T20:09:28.439Z,32.27
2019-04-05T20:12:37.167Z,33.67
2019-04-05T20:15:45.777Z,33.63
2019-04-05T20:19:04.555Z,33.87
2019-04-05T20:22:13.206Z,32.63
2019-04-05T20:25:21.744Z,32.13
2019-04-05T20:28:30.408Z,32.67
2019-04-05T20:31:39.016Z,32.87
2019-04-05T20:34:47.650Z,33.17
2019-04-05T20:37:56.296Z,32.33
2019-04-05T20:41:15.173Z,32.37
2019-04-05T20:44:23.715Z,29.20
2019-04-05T20:47:32.328Z,32.60
2019-04-05T20:50:40.854Z,33.10
2019-04-05T20:53:49.561Z,31.83
2019-04-05T20:56:58.076Z,32.10
2019-04-05T21:00:17.718Z,35.87
2019-04-05T21:03:26.313Z,34.17
2019-04-05T21:06:34.959Z,34.00
2019-04-05T21:09:53.873Z,35.70
2019-04-05T21:13:02.600Z,35.30
2019-04-05T21:16:11.228Z,31.70
2019-04-05T21:19:19.958Z,33.43
2019-04-05T21:22:28.467Z,35.60
2019-04-05T21:25:37.780Z,33.67
2019-04-05T21:28:46.404Z,33.13
2019-04-05T21:31:55.113Z,33.53
2019-04-05T21:35:03.749Z,35.07
2019-04-05T21:38:12.368Z,33.57
2019-04-05T21:41:21.059Z,34.50
2019-04-05T21:44:29.603Z,34.20
2019-04-05T21:47:48.405Z,34.07
2019-04-05T21:50:56.945Z,33.87
2019-04-05T21:54:05.479Z,32.73
2019-04-05T21:57:14.144Z,33.13
2019-04-05T22:00:27.616Z,33.13
2019-04-05T22:03:36.179Z,35.83
2019-04-05T22:06:55.013Z,35.67
2019-04-05T22:10:04.350Z,34.70
2019-04-05T22:13:23.271Z,36.03
2019-04-05T22:16:32.233Z,35.03
2019-04-05T22:19:51.553Z,34.30
2019-04-05T22:23:00.305Z,34.57
2019-04-05T22:26:08.929Z,36.37
2019-04-05T22:29:17.571Z,33.43
2019-04-05T22:32:26.222Z,34.47
2019-04-05T22:35:34.730Z,33.50
2019-04-05T22:38:43.441Z,34.40
2019-04-05T22:41:54.217Z,33.63
2019-04-05T22:45:02.858Z,33.40
2019-04-05T22:48:11.547Z,33.23
2019-04-05T22:51:20.159Z,33.27
2019-04-05T22:54:28.797Z,32.27
2019-04-05T22:57:37.437Z,32.63
2019-04-05T23:00:56.324Z,30.67
2019-04-05T23:04:04.886Z,30.90
2019-04-05T23:07:13.561Z,31.30
2019-04-05T23:10:22.270Z,32.40
2019-04-05T23:13:30.951Z,32.23
2019-04-05T23:16:39.627Z,31.50
2019-04-05T23:19:48.166Z,31.73
2019-04-05T23:22:56.918Z,32.10
2019-04-05T23:26:05.595Z,35.60
2019-04-05T23:29:24.526Z,33.27
2019-04-05T23:32:33.232Z,34.93
2019-04-05T23:35:43.697Z,35.00
2019-04-05T23:38:52.346Z,35.43
2019-04-05T23:42:00.975Z,38.37
2019-04-05T23:45:10.083Z,36.83
2019-04-05T23:48:18.611Z,37.90
2019-04-05T23:51:27.217Z,40.27
2019-04-05T23:54:35.830Z,39.70
2019-04-05T23:57:44.437Z,37.43
